West Brentwood, New York
Current Conditions -  °F | °C
As of 6:56 AM on Sunday 25 Jan 2015 (Local Time) from KISP Reporting Station
Broken Clouds Broken Clouds  
Wind Chill: 24°   Ceiling: 6000
Heat Index: 33°   Visibility: 10mi
Dew Point: 25°   Wind: 13mph
Humidity: 72%   Direction: 240°WSW
Pressure: 29.62"   Gusts: NA
Location:  40.7837°N, 73.252°W
Report Text: KISP 251156Z 24011KT 10SM BKN060 BKN150 BKN250 01/M04 A2962 RMK AO2 SLP031 70027 T00061039 10017 20006 53028
Loading
Personal Weather Stations






























Interactive Weather Map New forecast layout! Learn more

10-Day Weather Forecast

Advertisements
Track Severe Weather on mobile